Stations météo

Publicité
Rodkallen, Suède (2188): Température de l'air & dewpoint: 03.12.2019 13:00:00 - 09.12.2019 13:00:00 (CET)Rodkallen, Suède (2188): Vitesse du vent & gusts: 03.12.2019 13:00:00 - 09.12.2019 13:00:00 (CET)Rodkallen, Suède (2188): Direction du vent: 03.12.2019 13:00:00 - 09.12.2019 13:00:00 (CET)Rodkallen, Suède (2188): visibility: 03.12.2019 13:00:00 - 09.12.2019 13:00:00 (CET)Rodkallen, Suède (2188): Quantités de précipitations: 03.12.2019 13:00:00 - 09.12.2019 13:00:00 (CET)
Date & Time tt [°C] td [°C] ff [km/h] ff [knt] fx [km/h] fx [knt] dd vv [km] rr [mm]
09.12.2019 13:00:00 -3,7 -5,9 29 16 45 24 NW 7 0,0
09.12.2019 12:00:00 -3,7 -5,9 31 17 51 28 NNW 3,3 0,0
09.12.2019 11:00:00 -3,6 -5,9 36 19 61 33 N 50 0,0
09.12.2019 10:00:00 -3,8 -5,9 37 20 57 31 N 11 0,0
09.12.2019 09:00:00 -4,2 -6,0 39 21 55 30 NNW 8 0,0
09.12.2019 08:00:00 -4,3 -5,7 36 19 55 30 N - 0,1
09.12.2019 07:00:00 -4,6 -5,8 39 21 49 27 N 3,3 0,2
09.12.2019 06:00:00 -4,4 -5,6 39 21 51 28 N 1,5 0,5
09.12.2019 05:00:00 -4,5 -5,6 42 23 53 29 N 1,6 0,7
09.12.2019 04:00:00 -4,1 -5,0 40 22 56 31 N 2,3 0,3
09.12.2019 03:00:00 -3,8 -4,8 44 24 54 29 NNE 21 0,0
09.12.2019 02:00:00 -3,3 -4,4 42 23 51 27 NNE 12 0,0
09.12.2019 01:00:00 -2,6 -4,0 35 19 41 22 NE 50 0,0
09.12.2019 00:00:00 -3,0 -4,9 29 16 35 19 NE 50 0,0
08.12.2019 23:00:00 -3,4 -5,6 23 13 29 16 NE 50 0,0
08.12.2019 22:00:00 -4,7 -6,4 22 12 26 14 N 50 0,0
08.12.2019 21:00:00 -5,1 -6,9 15 8 21 11 N 50 0,0
08.12.2019 20:00:00 -5,5 -7,6 16 9 25 13 NNE 50 0,0
08.12.2019 19:00:00 -5,7 -7,8 13 7 17 9 NNE 50 0,0
08.12.2019 18:00:00 -5,8 -7,8 11 6 14 8 N 50 0,0
08.12.2019 17:00:00 -6,1 -8,5 6 3 13 7 N 50 0,0
08.12.2019 16:00:00 -5,7 -8,7 8 5 15 8 NNW 50 0,0
08.12.2019 15:00:00 -5,5 -8,4 10 5 16 8 NW 50 0,0
08.12.2019 14:00:00 -5,2 -8,1 11 6 20 11 WNW 50 0,0
08.12.2019 13:00:00 -4,8 -7,9 14 8 20 11 WNW 50 0,0
08.12.2019 12:00:00 -5,1 -8,2 16 8 20 11 WNW 50 0,0
08.12.2019 11:00:00 -5,6 -8,8 16 9 23 12 WNW 50 0,0
08.12.2019 10:00:00 -6,9 -9,9 13 7 26 14 NW 50 0,0
08.12.2019 09:00:00 -7,2 -10,2 18 10 26 14 NW 50 0,0
08.12.2019 08:00:00 -7,3 -10,0 17 9 29 16 NW 50 0,0
08.12.2019 07:00:00 -7,5 -10,2 19 10 35 19 NW 50 0,0
08.12.2019 06:00:00 -7,7 -10,1 22 12 34 18 NNW 50 0,0
08.12.2019 05:00:00 -7,9 -9,7 17 9 29 16 NNW 50 0,0
08.12.2019 04:00:00 -7,6 -8,8 16 9 23 12 N 50 0,0
08.12.2019 03:00:00 -6,2 -7,4 18 10 24 13 NNW 31 0,0
08.12.2019 02:00:00 -2,8 -4,8 13 7 21 12 WNW 50 0,0
08.12.2019 01:00:00 -1,6 -3,8 19 10 22 12 W 50 0,0
08.12.2019 00:00:00 -1,2 -3,2 16 9 21 11 W 50 0,0
07.12.2019 23:00:00 -1,2 -3,1 16 9 22 12 W 50 0,0
07.12.2019 22:00:00 -0,8 -3,1 19 10 22 12 WSW 50 0,0
07.12.2019 21:00:00 -0,6 -2,8 19 10 22 12 SW 50 0,0
07.12.2019 20:00:00 -0,4 -2,3 19 10 22 12 SW 50 0,0
07.12.2019 19:00:00 -0,2 -2,1 20 11 28 15 SW 50 0,0
07.12.2019 18:00:00 -0,1 -1,8 19 10 22 12 SW 50 0,0
07.12.2019 17:00:00 0,1 -1,3 20 11 24 13 SW 50 0,0
07.12.2019 16:00:00 0,1 -1,3 15 8 23 12 SSW 50 0,0
07.12.2019 15:00:00 0,1 -1,3 16 9 20 11 SW 50 0,0
07.12.2019 14:00:00 0,1 -1,2 17 9 22 12 SSW 50 0,0
07.12.2019 13:00:00 0,2 -1,2 18 10 21 12 SSW 49 0,0
07.12.2019 12:00:00 0,1 -1,5 10 6 23 12 SSW 44 0,0
07.12.2019 11:00:00 0,1 -1,3 21 11 25 13 SSW 50 0,0
07.12.2019 10:00:00 0,2 -1,3 18 10 23 13 SSW 50 0,0
07.12.2019 09:00:00 0,4 -1,2 20 11 24 13 SW 50 0,0
07.12.2019 08:00:00 0,2 -1,4 18 10 23 12 SSW 50 0,0
07.12.2019 07:00:00 0,3 -1,6 22 12 30 16 SSW 50 0,0
07.12.2019 06:00:00 0,2 -1,9 21 12 27 15 SSW 50 0,0
07.12.2019 05:00:00 0,2 -1,9 21 11 27 15 SW 50 0,0
07.12.2019 04:00:00 0,3 -1,8 21 11 28 15 SW 50 0,0
07.12.2019 03:00:00 0,4 -1,5 23 13 32 17 SSW 50 0,0
07.12.2019 02:00:00 0,4 -1,5 27 15 34 19 SSW 50 0,0
07.12.2019 01:00:00 0,3 -1,6 28 15 34 19 SSW 50 0,0
07.12.2019 00:00:00 0,2 -1,7 25 13 32 18 SSW 50 0,0
06.12.2019 23:00:00 0,2 -1,7 30 16 36 19 SSW 50 0,0
06.12.2019 22:00:00 0,2 -1,9 29 15 35 19 SSW 50 0,0
06.12.2019 21:00:00 0,2 -1,7 22 12 32 18 SSW 50 0,0
06.12.2019 20:00:00 0,1 -1,8 27 15 31 17 SSW 50 0,0
06.12.2019 19:00:00 -0,1 -2,2 24 13 30 16 SSW 50 0,0
06.12.2019 18:00:00 -0,2 -2,3 27 14 35 19 SW 50 0,0
06.12.2019 17:00:00 -0,2 -2,3 27 15 35 19 SW 50 0,0
06.12.2019 16:00:00 0,0 -2,5 26 14 33 18 SW 50 0,0
06.12.2019 15:00:00 0,1 -2,1 21 11 26 14 WSW 50 0,0
06.12.2019 14:00:00 -0,1 -2,3 24 13 31 17 SW 50 0,0
06.12.2019 13:00:00 0,0 -2,1 16 9 27 14 WSW 50 0,0
06.12.2019 12:00:00 0,3 -1,8 22 12 31 17 SW 50 0,0
06.12.2019 11:00:00 0,4 -1,5 24 13 29 15 SW 50 0,0
06.12.2019 10:00:00 0,4 -1,8 21 11 25 14 SW 50 0,0
06.12.2019 09:00:00 0,2 -2,2 17 9 23 12 SW 50 0,0
06.12.2019 08:00:00 0,1 -2,3 21 12 33 18 WSW 50 0,0
06.12.2019 07:00:00 0,4 -2,3 24 13 33 18 WSW 50 0,0
06.12.2019 06:00:00 0,6 -2,1 22 12 37 20 SW 50 0,0
06.12.2019 05:00:00 0,7 -2,2 31 17 38 20 SW 50 0,0
06.12.2019 04:00:00 0,7 -2,3 31 17 37 20 SW 50 0,0
06.12.2019 03:00:00 0,9 -2,3 28 15 35 19 WSW 50 0,0
06.12.2019 02:00:00 1,0 -2,2 29 16 38 20 SW 48 0,0
06.12.2019 01:00:00 1,3 -2,3 30 16 36 19 SW 50 0,0
06.12.2019 00:00:00 1,5 -1,7 32 18 37 20 SW 50 0,0
05.12.2019 23:00:00 1,7 -1,2 29 16 40 22 SW 50 0,0
05.12.2019 22:00:00 1,6 -0,8 29 16 36 20 SW 49 0,0
05.12.2019 21:00:00 1,4 -0,5 32 17 40 21 SSW 40 0,0
05.12.2019 20:00:00 1,3 -0,3 35 19 41 22 S 35 0,0
05.12.2019 19:00:00 1,4 -0,5 33 18 43 23 S 37 0,0
05.12.2019 18:00:00 1,3 -0,3 36 20 44 24 S 35 0,0
05.12.2019 17:00:00 1,5 -0,3 35 19 44 24 S 40 0,0
05.12.2019 16:00:00 1,5 -0,1 33 18 42 23 S 35 0,0
05.12.2019 15:00:00 1,5 -0,1 35 19 47 25 S 48 0,0
05.12.2019 14:00:00 1,3 0,1 36 20 41 22 S 42 0,0
05.12.2019 13:00:00 1,4 0,1 36 19 41 22 S 45 0,0
05.12.2019 12:00:00 2,0 -0,1 32 17 39 21 SSW 45 0,0
05.12.2019 11:00:00 1,9 -0,2 31 17 37 20 S 37 0,0
05.12.2019 10:00:00 2,1 -0,2 32 17 40 21 SSW 50 0,0
05.12.2019 09:00:00 2,3 0,4 28 15 33 18 SSW 50 0,0
05.12.2019 08:00:00 1,9 0,6 27 15 32 17 SSW 43 0,0
05.12.2019 07:00:00 2,1 0,8 26 14 34 18 SSW 43 0,0
05.12.2019 06:00:00 1,8 0,5 24 13 35 19 SW 35 0,0
05.12.2019 05:00:00 2,3 1,0 26 14 33 18 SSW 36 0,0
05.12.2019 04:00:00 2,0 0,9 28 15 33 18 SSW 38 0,0
05.12.2019 03:00:00 1,8 0,8 24 13 41 22 S 22 0,0
05.12.2019 02:00:00 2,3 1,0 25 13 32 17 SW 30 0,2
05.12.2019 01:00:00 2,4 1,2 24 13 32 17 SW 12 0,2
05.12.2019 00:00:00 2,5 1,0 24 13 36 20 SW 35 0,0
04.12.2019 23:00:00 2,4 0,8 25 13 40 21 SSW 36 0,0
04.12.2019 22:00:00 2,4 0,7 20 11 34 18 SSW 50 0,0
04.12.2019 21:00:00 2,3 0,5 19 10 29 16 SSW 50 0,0
04.12.2019 20:00:00 2,7 0,8 29 16 32 17 SW 50 0,0
04.12.2019 19:00:00 2,8 0,7 30 16 40 21 SW 50 0,0
04.12.2019 18:00:00 3,7 0,9 32 18 40 21 SW 50 0,0
04.12.2019 17:00:00 2,5 0,2 38 20 44 24 SW 50 0,0
04.12.2019 16:00:00 2,9 0,9 36 19 41 22 SW 50 0,0
04.12.2019 15:00:00 3,2 0,9 36 19 46 25 SW 50 0,0
04.12.2019 14:00:00 3,8 0,8 36 20 49 27 WSW 50 0,0
04.12.2019 13:00:00 3,8 0,7 47 25 53 29 W 50 0,0
04.12.2019 12:00:00 2,5 0,1 22 12 37 20 WSW 50 0,0
04.12.2019 11:00:00 3,5 0,7 31 17 40 22 WSW 50 0,0
04.12.2019 10:00:00 3,4 1,0 37 20 44 24 WSW 50 0,0
04.12.2019 09:00:00 3,5 1,2 35 19 42 23 WSW 50 0,0
04.12.2019 08:00:00 3,2 1,2 31 17 37 20 W 50 0,0
04.12.2019 07:00:00 2,5 1,0 30 16 35 19 WSW 50 0,0
04.12.2019 06:00:00 2,5 1,5 29 16 32 18 WSW 50 0,0
04.12.2019 05:00:00 2,1 1,4 22 12 27 15 WSW 50 0,1
04.12.2019 04:00:00 1,6 1,0 22 12 29 15 SW 18 0,4
04.12.2019 03:00:00 1,3 0,7 25 13 29 16 SW 11 0,6
04.12.2019 02:00:00 1,0 0,3 22 12 25 14 SSW 8 0,7
04.12.2019 01:00:00 1,0 0,1 20 11 26 14 SW 13 0,2
04.12.2019 00:00:00 0,8 -0,1 19 10 27 14 SSW 50 0,0
03.12.2019 23:00:00 0,8 0,1 23 12 29 16 SSW 50 0,0
03.12.2019 22:00:00 0,6 0,1 21 11 27 14 SSW 50 0,0
03.12.2019 21:00:00 0,5 0,1 23 12 27 15 SSW 50 0,0
03.12.2019 20:00:00 0,4 0,0 22 12 26 14 SSW 23 0,0
03.12.2019 19:00:00 0,1 -0,3 23 12 29 16 SSW 6 0,1
03.12.2019 18:00:00 0,0 -0,6 26 14 32 17 SSW 6 0,1
03.12.2019 17:00:00 -0,1 -0,8 29 16 38 21 SSW 2,2 0,1
03.12.2019 16:00:00 -0,4 -1,3 31 17 39 21 SSW 6 0,0
03.12.2019 15:00:00 -0,3 -2,2 33 18 41 22 SSW 42 -
03.12.2019 14:00:00 -0,5 -3,0 22 12 28 15 SSW 50 0,0
03.12.2019 13:00:00 -0,7 -3,6 19 10 28 15 SSW 50 0,0

tt = Température de l'air
td = dewpoint
ff = Vitesse du vent
fx = gusts
dd = Direction du vent
vv = visibility
rr = Quantités de précipitations

stations d'obs. à proximité